Time;durP1;ratioP1;P1;durP2;ratioP2;P2;SDS_P1;SDS_P2;PMS_P1;PMS_P2;Temp;Humidity;BMP_temperature;BMP_pressure;BME280_temperature;BME280_humidity;BME280_pressure;Samples;Min_cycle;Max_cycle;Signal;HPM_P1;HPM_P2
2023/07/22 00:00:45;;;;;;;14.32;11.07;;;;;;;16.82;63.74;101159.31;3539330;40;20329;-62
2023/07/22 00:03:11;;;;;;;13.30;11.38;;;;;;;16.88;64.66;101169.66;3536913;40;21407;-63
2023/07/22 00:05:36;;;;;;;14.30;11.93;;;;;;;16.33;64.04;101078.31;3538351;40;20156;-63
2023/07/22 00:08:02;;;;;;;13.27;11.50;;;;;;;16.71;63.95;101143.91;3532598;40;20410;-62
2023/07/22 00:10:28;;;;;;;14.23;11.95;;;;;;;16.88;64.30;101175.09;3537331;40;20140;-62
2023/07/22 00:12:53;;;;;;;16.40;12.18;;;;;;;16.81;63.74;101164.84;3540811;40;20068;-62
2023/07/22 00:15:22;;;;;;;16.25;12.27;;;;;;;16.82;64.24;101163.88;3539288;40;20397;-63
2023/07/22 00:17:48;;;;;;;14.73;11.57;;;;;;;16.77;64.94;101166.09;3537634;40;20057;-63
2023/07/22 00:20:16;;;;;;;16.20;11.80;;;;;;;16.20;64.62;101070.31;3534932;40;20070;-62
2023/07/22 00:22:42;;;;;;;15.23;12.27;;;;;;;16.74;64.66;101160.91;3538564;40;20090;-62
2023/07/22 00:25:11;;;;;;;13.13;10.68;;;;;;;16.48;64.76;101109.63;3537598;40;20131;-62
2023/07/22 00:27:39;;;;;;;12.43;10.73;;;;;;;16.74;64.99;101160.91;3537232;40;20370;-62
2023/07/22 00:30:07;;;;;;;16.23;11.15;;;;;;;16.74;64.56;101160.91;3534506;40;20062;-62
2023/07/22 00:32:33;;;;;;;12.23;10.85;;;;;;;16.72;65.20;101166.47;3535282;40;20306;-62
2023/07/22 00:34:58;;;;;;;12.90;10.98;;;;;;;16.12;65.25;101065.53;3536313;40;20076;-62
2023/07/22 00:37:25;;;;;;;15.20;11.40;;;;;;;16.60;65.00;101151.19;3536823;40;20066;-63
2023/07/22 00:39:51;;;;;;;13.63;10.57;;;;;;;16.59;65.72;101152.19;3535190;40;20106;-62
2023/07/22 00:42:17;;;;;;;13.18;11.18;;;;;;;16.57;66.02;101155.00;3537420;40;20488;-63
2023/07/22 00:44:42;;;;;;;13.65;10.98;;;;;;;16.21;65.25;101094.63;3534916;40;20106;-63
2023/07/22 00:47:09;;;;;;;14.48;11.07;;;;;;;16.56;66.23;101152.44;3538020;40;20054;-63
2023/07/22 00:49:36;;;;;;;14.52;11.15;;;;;;;16.39;66.24;101127.50;3533402;40;20046;-63
2023/07/22 00:52:03;;;;;;;12.52;10.88;;;;;;;16.51;65.51;101157.38;3541220;40;20094;-62
2023/07/22 00:54:30;;;;;;;12.98;10.75;;;;;;;16.47;65.93;101138.63;3534411;40;20128;-62
2023/07/22 00:56:57;;;;;;;13.00;10.55;;;;;;;16.08;66.00;101074.91;3535786;40;20524;-62
2023/07/22 00:59:24;;;;;;;13.73;10.60;;;;;;;16.46;66.27;101152.31;3533907;40;20396;-62
2023/07/22 01:01:50;;;;;;;12.68;10.32;;;;;;;16.47;67.14;101148.63;3535228;40;20054;-63
2023/07/22 01:04:20;;;;;;;12.57;10.88;;;;;;;16.44;66.47;101138.88;3540068;40;20069;-64
2023/07/22 01:06:46;;;;;;;12.68;10.10;;;;;;;16.47;67.04;101149.47;3534198;40;20058;-63
2023/07/22 01:09:13;;;;;;;13.85;10.48;;;;;;;16.01;66.83;101077.22;3534922;40;20069;-63
2023/07/22 01:11:39;;;;;;;14.18;11.50;;;;;;;16.41;67.14;101141.81;3533540;40;20129;-63
2023/07/22 01:14:04;;;;;;;14.57;10.40;;;;;;;15.96;67.44;101067.78;3534265;40;20054;-63
2023/07/22 01:16:31;;;;;;;12.93;10.85;;;;;;;16.43;67.28;101139.88;3535672;40;20061;-63
2023/07/22 01:18:57;;;;;;;14.10;11.35;;;;;;;16.42;67.14;101140.84;3535779;40;20070;-64
2023/07/22 01:21:25;;;;;;;13.82;10.48;;;;;;;16.37;67.49;101137.66;3536183;40;20352;-63
2023/07/22 01:23:52;;;;;;;15.23;11.48;;;;;;;16.29;67.14;101123.84;3535770;40;20058;-63
2023/07/22 01:26:18;;;;;;;13.50;11.25;;;;;;;16.37;67.79;101137.66;3536315;40;20058;-63
2023/07/22 01:28:44;;;;;;;14.20;11.70;;;;;;;15.84;67.44;101047.91;3532633;40;20663;-63
2023/07/22 01:31:10;;;;;;;15.20;12.05;;;;;;;16.34;67.65;101135.19;3534580;40;20289;-62
2023/07/22 01:33:35;;;;;;;14.75;11.07;;;;;;;15.79;67.44;101044.72;3537190;40;20077;-62
2023/07/22 01:36:02;;;;;;;14.45;11.13;;;;;;;16.34;67.28;101135.19;3534721;40;20066;-64
2023/07/22 01:38:29;;;;;;;14.77;12.38;;;;;;;16.35;67.77;101134.19;3531468;40;20046;-63
2023/07/22 01:40:55;;;;;;;15.80;11.75;;;;;;;16.36;68.30;101127.75;3536641;40;20053;-64
2023/07/22 01:43:21;;;;;;;15.82;11.07;;;;;;;16.39;68.27;101135.66;3534761;40;20062;-63
2023/07/22 01:45:47;;;;;;;16.88;12.10;;;;;;;16.40;67.53;101131.97;3531791;40;20099;-63
2023/07/22 01:48:12;;;;;;;13.18;11.10;;;;;;;16.39;67.44;101127.50;3535389;40;20058;-63
2023/07/22 01:50:38;;;;;;;14.73;11.23;;;;;;;15.62;67.48;100993.69;3535520;40;20074;-63
2023/07/22 01:53:05;;;;;;;15.77;11.77;;;;;;;15.89;67.20;101045.72;3537241;40;20053;-64
2023/07/22 01:55:32;;;;;;;14.20;11.05;;;;;;;16.20;67.85;101101.00;3533636;40;20412;-63
2023/07/22 01:57:58;;;;;;;14.40;11.70;;;;;;;16.33;67.92;101114.44;3534615;40;20378;-64
2023/07/22 02:00:24;;;;;;;15.98;11.82;;;;;;;16.30;67.25;101117.44;3534128;40;20057;-64
2023/07/22 02:02:50;;;;;;;15.68;11.13;;;;;;;16.29;67.99;101112.97;3532482;40;20047;-64
2023/07/22 02:05:16;;;;;;;13.05;11.60;;;;;;;16.29;67.75;101118.41;3535809;40;20058;-63
2023/07/22 02:07:42;;;;;;;15.57;11.23;;;;;;;16.28;67.55;101127.53;3535860;40;20132;-63
2023/07/22 02:10:09;;;;;;;15.32;11.93;;;;;;;16.25;68.44;101119.66;3536779;40;20069;-63
2023/07/22 02:12:35;;;;;;;13.23;11.38;;;;;;;16.24;67.80;101117.94;3539942;40;20058;-64
2023/07/22 02:15:02;;;;;;;15.00;11.60;;;;;;;16.23;68.68;101114.34;3535715;40;20496;-64
2023/07/22 02:17:30;;;;;;;15.45;10.68;;;;;;;16.23;68.51;101110.75;3533712;40;20059;-62
2023/07/22 02:19:56;;;;;;;15.68;11.68;;;;;;;16.21;68.04;101110.91;3534043;40;20067;-62
2023/07/22 02:22:22;;;;;;;15.27;11.48;;;;;;;15.66;68.81;101014.97;3535628;40;20333;-63
2023/07/22 02:24:47;;;;;;;16.83;11.82;;;;;;;16.18;68.20;101104.88;3535119;40;20070;-64
2023/07/22 02:27:14;;;;;;;15.23;11.10;;;;;;;16.18;68.89;101104.88;3534619;40;20073;-63
2023/07/22 02:29:39;;;;;;;16.17;11.43;;;;;;;16.15;68.44;101105.97;3534384;40;20066;-62
2023/07/22 02:32:06;;;;;;;17.10;11.80;;;;;;;16.10;68.71;101102.75;3534407;40;20050;-65
2023/07/22 02:34:31;;;;;;;14.93;11.48;;;;;;;16.15;69.53;101105.13;3535820;40;20062;-63
2023/07/22 02:36:57;;;;;;;13.95;10.95;;;;;;;16.13;69.39;101105.22;3536616;40;20150;-62
2023/07/22 02:39:23;;;;;;;15.43;12.05;;;;;;;16.11;69.66;101106.31;3534190;40;20396;-63
2023/07/22 02:41:48;;;;;;;14.32;11.15;;;;;;;16.10;69.46;101108.19;3536299;40;20089;-62
2023/07/22 02:44:14;;;;;;;14.10;10.98;;;;;;;16.10;69.56;101107.31;3533147;40;20377;-62
2023/07/22 02:46:41;;;;;;;21.48;16.63;;;;;;;16.04;69.58;101099.69;3537873;40;20053;-62
2023/07/22 02:49:06;;;;;;;15.77;12.95;;;;;;;15.67;70.19;101048.44;3538874;40;20051;-63
2023/07/22 02:51:32;;;;;;;14.80;11.52;;;;;;;15.92;69.98;101094.28;3535773;40;20416;-64
2023/07/22 02:53:58;;;;;;;14.98;11.00;;;;;;;15.88;70.40;101092.75;3537604;40;20071;-64
2023/07/22 02:56:23;;;;;;;13.90;11.25;;;;;;;15.90;70.79;101103.50;3535268;40;20076;-64
2023/07/22 02:58:50;;;;;;;15.52;10.95;;;;;;;15.84;70.54;101112.13;3537518;40;20065;-64
2023/07/22 03:01:16;;;;;;;14.60;11.05;;;;;;;15.18;70.99;101011.63;3536130;40;20380;-64
2023/07/22 03:03:41;;;;;;;16.33;11.40;;;;;;;15.70;71.40;101110.53;3535996;40;20056;-64
2023/07/22 03:06:09;;;;;;;14.57;11.27;;;;;;;15.61;71.56;101095.81;3537430;40;20059;-63
2023/07/22 03:08:35;;;;;;;17.58;11.57;;;;;;;15.50;72.02;101099.34;3537337;40;20058;-64
2023/07/22 03:11:01;;;;;;;16.15;11.10;;;;;;;15.53;72.34;101107.22;3534428;40;20066;-63
2023/07/22 03:13:30;;;;;;;14.88;11.52;;;;;;;15.50;72.75;101114.72;3537716;40;20062;-64
2023/07/22 03:15:57;;;;;;;16.52;11.98;;;;;;;14.92;72.83;101022.63;3534458;40;20063;-64
2023/07/22 03:18:23;;;;;;;19.52;11.38;;;;;;;15.43;73.44;101118.91;3537075;40;20685;-63
2023/07/22 03:20:49;;;;;;;14.60;11.15;;;;;;;15.38;73.13;101113.88;3537357;40;20070;-63
2023/07/22 03:23:15;;;;;;;17.02;11.88;;;;;;;15.32;73.47;101111.63;3535192;40;20059;-64
2023/07/22 03:25:41;;;;;;;15.52;11.85;;;;;;;15.27;73.42;101116.53;3530560;40;20158;-64
2023/07/22 03:28:07;;;;;;;18.80;11.32;;;;;;;15.21;73.83;101117.84;3533163;40;20053;-63
2023/07/22 03:30:33;;;;;;;14.73;11.55;;;;;;;15.19;74.12;101122.53;3535351;40;20070;-63
2023/07/22 03:33:00;;;;;;;15.95;11.32;;;;;;;14.65;74.19;101030.13;3535939;40;20061;-64
2023/07/22 03:35:27;;;;;;;17.95;11.52;;;;;;;14.90;74.34;101083.28;3533211;40;20065;-64
2023/07/22 03:37:53;;;;;;;13.90;11.68;;;;;;;15.11;74.85;101124.09;3533336;40;20074;-64
2023/07/22 03:40:19;;;;;;;13.85;11.07;;;;;;;14.70;74.68;101061.28;3535171;40;20051;-64
2023/07/22 03:42:51;;;;;;;15.25;11.85;;;;;;;15.03;74.72;101120.13;3534972;40;20053;-64
2023/07/22 03:45:21;;;;;;;13.80;11.13;;;;;;;15.00;74.61;101128.50;3534469;40;20069;-64
2023/07/22 03:47:56;;;;;;;14.15;10.65;;;;;;;14.97;75.37;101128.72;3533679;40;20052;-63
2023/07/22 03:50:22;;;;;;;15.35;11.43;;;;;;;14.43;75.49;101039.84;3533835;40;20065;-63
2023/07/22 03:52:47;;;;;;;16.35;11.48;;;;;;;14.90;75.68;101123.88;3536557;40;20141;-64
2023/07/22 03:55:13;;;;;;;14.30;11.57;;;;;;;14.90;75.63;101121.16;3538661;40;20054;-64
2023/07/22 03:57:39;;;;;;;14.70;11.07;;;;;;;14.35;75.59;101034.13;3534739;40;20148;-63
2023/07/22 04:00:10;;;;;;;13.82;10.60;;;;;;;14.80;75.80;101107.47;3533328;40;20062;-64
2023/07/22 04:02:36;;;;;;;16.02;11.43;;;;;;;14.80;75.39;101116.44;3536388;40;20097;-64
2023/07/22 04:05:02;;;;;;;18.42;11.80;;;;;;;14.80;76.10;101115.59;3533029;40;20062;-64
2023/07/22 04:07:27;;;;;;;22.25;11.50;;;;;;;14.21;76.21;101015.34;3533360;40;20114;-64
2023/07/22 04:09:53;;;;;;;16.90;11.32;;;;;;;14.24;76.13;101020.53;3534568;40;20122;-65
2023/07/22 04:12:18;;;;;;;16.52;11.43;;;;;;;14.74;76.32;101106.06;3535279;40;20489;-64
2023/07/22 04:14:44;;;;;;;19.88;11.68;;;;;;;14.78;76.53;101118.41;3536110;40;20050;-64
2023/07/22 04:17:10;;;;;;;16.30;11.50;;;;;;;14.78;76.61;101115.72;3537137;40;20397;-66
2023/07/22 04:19:35;;;;;;;14.18;11.15;;;;;;;14.72;76.22;101107.19;3533938;40;20070;-65
2023/07/22 04:22:04;;;;;;;16.58;11.55;;;;;;;14.77;76.05;101122.09;3535919;40;20064;-65
2023/07/22 04:24:32;;;;;;;16.77;12.27;;;;;;;14.14;75.83;101015.84;3534120;40;20385;-63
2023/07/22 04:26:59;;;;;;;16.15;11.55;;;;;;;14.74;76.96;101125.00;3535412;40;20073;-63
2023/07/22 04:29:24;;;;;;;15.48;11.48;;;;;;;14.73;76.89;101112.47;3535637;40;20105;-64
2023/07/22 04:31:50;;;;;;;17.88;12.18;;;;;;;14.76;76.40;101114.94;3533189;40;20066;-63
2023/07/22 04:34:16;;;;;;;14.65;11.23;;;;;;;14.75;76.17;101121.34;3536561;40;20094;-63
2023/07/22 04:36:41;;;;;;;17.27;12.73;;;;;;;14.74;76.75;101125.00;3532249;40;20361;-63
2023/07/22 04:39:10;;;;;;;14.68;11.68;;;;;;;14.73;75.83;101125.16;3531269;40;20314;-63
2023/07/22 04:41:35;;;;;;;17.38;12.68;;;;;;;14.80;76.89;101131.81;3538579;40;20050;-63
2023/07/22 04:44:01;;;;;;;16.73;11.45;;;;;;;14.80;75.89;101127.25;3536340;40;20314;-63
2023/07/22 04:46:27;;;;;;;14.88;11.38;;;;;;;14.85;75.87;101130.50;3533914;40;20420;-63
2023/07/22 04:48:57;;;;;;;17.00;10.82;;;;;;;14.91;76.08;101126.47;3532106;40;20053;-63
2023/07/22 04:51:23;;;;;;;13.82;11.35;;;;;;;14.98;76.05;101126.88;3535105;40;20103;-63
2023/07/22 04:53:49;;;;;;;15.30;10.75;;;;;;;15.06;75.49;101128.03;3534207;40;20499;-63
2023/07/22 04:56:16;;;;;;;13.43;10.85;;;;;;;15.12;75.74;101131.22;3535661;40;20053;-64
2023/07/22 04:58:41;;;;;;;12.48;10.23;;;;;;;15.21;75.30;101133.25;3529718;40;20322;-63
2023/07/22 05:01:08;;;;;;;12.93;10.50;;;;;;;15.23;74.84;101124.03;3532785;40;20377;-63
2023/07/22 05:03:34;;;;;;;14.82;10.85;;;;;;;14.89;74.19;101055.34;3535132;40;20066;-63
2023/07/22 05:06:00;;;;;;;13.02;10.57;;;;;;;15.45;74.44;101142.19;3532797;40;20349;-63
2023/07/22 05:08:25;;;;;;;13.73;10.55;;;;;;;15.47;73.73;101132.09;3534288;40;20042;-63
2023/07/22 05:10:51;;;;;;;13.70;9.90;;;;;;;15.59;73.67;101140.25;3533999;40;20058;-63
2023/07/22 05:13:16;;;;;;;11.90;10.32;;;;;;;15.10;73.32;101058.25;3533181;40;20058;-63
2023/07/22 05:15:42;;;;;;;12.75;10.18;;;;;;;15.61;72.45;101143.72;3533447;40;20065;-63
2023/07/22 05:18:08;;;;;;;12.70;10.13;;;;;;;15.66;72.85;101152.34;3535504;40;20055;-63
2023/07/22 05:20:34;;;;;;;15.68;10.20;;;;;;;15.71;73.03;101147.47;3534070;40;20072;-63
2023/07/22 05:22:59;;;;;;;14.10;10.55;;;;;;;15.74;72.89;101144.53;3533310;40;20570;-63
2023/07/22 05:25:25;;;;;;;13.90;10.07;;;;;;;15.73;72.62;101138.25;3532656;40;20070;-63
2023/07/22 05:27:50;;;;;;;14.18;10.75;;;;;;;15.78;72.24;101141.44;3533456;40;20062;-64
2023/07/22 05:30:16;;;;;;;13.80;10.27;;;;;;;15.84;72.56;101145.50;3535497;40;20058;-64
2023/07/22 05:32:42;;;;;;;14.35;10.75;;;;;;;15.89;72.36;101151.44;3536626;40;20133;-62
2023/07/22 05:35:08;;;;;;;14.32;10.27;;;;;;;15.93;72.25;101139.38;3536358;40;20062;-63
2023/07/22 05:37:34;;;;;;;18.77;10.95;;;;;;;16.00;72.59;101148.72;3537455;40;20054;-63
2023/07/22 05:40:01;;;;;;;13.50;10.38;;;;;;;16.09;72.55;101149.84;3536159;40;20073;-63
2023/07/22 05:42:27;;;;;;;14.27;10.77;;;;;;;15.72;72.14;101059.75;3539435;40;20127;-64
2023/07/22 05:44:57;;;;;;;12.48;10.20;;;;;;;16.24;71.71;101142.34;3531332;40;20436;-63
2023/07/22 05:47:23;;;;;;;13.38;10.45;;;;;;;16.29;71.80;101134.69;3532967;40;20050;-63
2023/07/22 05:49:48;;;;;;;16.02;10.15;;;;;;;16.30;72.11;101136.44;3534372;40;20062;-63
2023/07/22 05:52:14;;;;;;;14.10;10.43;;;;;;;16.07;71.79;101089.44;3536784;40;21448;-63
2023/07/22 05:54:40;;;;;;;16.20;10.70;;;;;;;16.42;71.81;101140.84;3534842;40;20128;-64
2023/07/22 05:57:06;;;;;;;13.40;11.13;;;;;;;16.43;71.33;101131.72;3535308;40;20058;-63
2023/07/22 05:59:31;;;;;;;13.70;10.57;;;;;;;16.44;71.23;101128.00;3534369;40;20383;-63
2023/07/22 06:01:57;;;;;;;14.68;10.80;;;;;;;16.43;71.27;101126.28;3532227;40;20057;-63
2023/07/22 06:04:23;;;;;;;15.45;10.43;;;;;;;16.55;71.83;101128.97;3538743;40;20088;-63
2023/07/22 06:06:49;;;;;;;14.23;10.65;;;;;;;16.08;71.48;101046.91;3539146;40;20098;-62
2023/07/22 06:09:14;;;;;;;14.13;10.55;;;;;;;16.10;71.39;101028.69;3535769;40;20070;-62
2023/07/22 06:11:40;;;;;;;15.48;11.20;;;;;;;16.66;70.78;101123.53;3540109;40;20056;-61
2023/07/22 06:14:06;;;;;;;14.98;11.18;;;;;;;16.77;70.95;101136.25;3535391;40;20374;-62
2023/07/22 06:16:32;;;;;;;15.70;11.07;;;;;;;16.83;70.67;101128.44;3535810;40;20054;-62
2023/07/22 06:18:58;;;;;;;15.77;11.15;;;;;;;16.86;70.80;101122.75;3537115;40;20092;-62
2023/07/22 06:21:23;;;;;;;15.82;11.13;;;;;;;16.89;71.10;101121.66;3534442;40;20105;-62
2023/07/22 06:23:49;;;;;;;15.18;11.32;;;;;;;16.94;70.58;101123.00;3538029;40;20062;-62
2023/07/22 06:26:14;;;;;;;18.90;11.25;;;;;;;17.06;70.61;101123.81;3537108;40;20078;-62
2023/07/22 06:28:40;;;;;;;14.82;11.20;;;;;;;17.16;70.20;101123.91;3540025;40;20060;-62
2023/07/22 06:31:06;;;;;;;14.20;12.10;;;;;;;17.17;70.15;101114.75;3536843;40;20098;-62
2023/07/22 06:33:31;;;;;;;15.85;11.63;;;;;;;16.91;70.71;101062.66;3538406;40;20057;-62
2023/07/22 06:35:59;;;;;;;15.93;11.77;;;;;;;17.36;70.42;101124.91;3538884;40;20058;-62
2023/07/22 06:38:24;;;;;;;17.05;11.32;;;;;;;16.86;70.20;101033.16;3539641;40;20141;-62
2023/07/22 06:40:53;;;;;;;17.02;11.95;;;;;;;17.50;70.20;101115.56;3536849;40;20092;-62
2023/07/22 06:43:19;;;;;;;15.05;11.80;;;;;;;17.60;70.70;101121.91;3537507;40;20740;-62
2023/07/22 06:45:44;;;;;;;17.85;11.90;;;;;;;17.64;69.52;101120.69;3542330;40;20074;-62
2023/07/22 06:48:10;;;;;;;20.70;12.95;;;;;;;17.21;69.98;101044.72;3537726;40;20070;-61
2023/07/22 06:50:36;;;;;;;19.13;12.85;;;;;;;17.68;70.11;101116.69;3538212;40;20099;-62
2023/07/22 06:53:01;;;;;;;19.48;12.52;;;;;;;17.68;70.06;101113.97;3539853;40;20058;-62
2023/07/22 06:55:27;;;;;;;16.98;11.80;;;;;;;17.75;70.10;101115.16;3533847;40;20089;-62
2023/07/22 06:57:56;;;;;;;19.10;11.82;;;;;;;17.82;69.74;101113.66;3540314;40;20098;-62
2023/07/22 07:00:22;;;;;;;16.10;10.60;;;;;;;17.94;69.19;101108.13;3536916;40;20392;-62
2023/07/22 07:02:47;;;;;;;18.10;10.63;;;;;;;17.52;68.80;101015.72;3540220;40;20098;-61
2023/07/22 07:05:13;;;;;;;17.42;11.38;;;;;;;18.02;68.30;101097.44;3539411;40;20055;-62
2023/07/22 07:07:39;;;;;;;16.55;11.23;;;;;;;18.09;67.91;101109.50;3536666;40;20313;-62
2023/07/22 07:10:05;;;;;;;16.60;10.85;;;;;;;18.23;68.45;101109.09;3535405;40;20323;-62
2023/07/22 07:12:31;;;;;;;14.25;11.35;;;;;;;18.35;68.33;101103.56;3538794;40;20058;-62
2023/07/22 07:14:57;;;;;;;18.05;10.98;;;;;;;18.41;67.44;101106.59;3537154;40;20062;-62
2023/07/22 07:17:23;;;;;;;18.20;11.27;;;;;;;18.48;67.47;101106.91;3536919;40;20363;-62
2023/07/22 07:19:48;;;;;;;16.10;10.85;;;;;;;18.52;67.76;101109.22;3542009;40;20069;-62
2023/07/22 07:22:14;;;;;;;16.95;10.93;;;;;;;18.05;67.59;101029.16;3538331;40;20094;-62
2023/07/22 07:24:40;;;;;;;16.58;11.57;;;;;;;18.53;68.52;101104.63;3533288;40;20069;-62
2023/07/22 07:27:06;;;;;;;16.00;10.32;;;;;;;18.54;68.82;101104.47;3535586;40;20062;-62
2023/07/22 07:29:31;;;;;;;15.80;10.50;;;;;;;18.56;68.58;101104.34;3533133;40;20063;-62
2023/07/22 07:31:57;;;;;;;13.95;10.07;;;;;;;18.56;68.15;101107.06;3538913;40;20054;-62
2023/07/22 07:34:23;;;;;;;16.90;10.32;;;;;;;18.62;68.09;101106.53;3535265;40;20070;-62
2023/07/22 07:36:48;;;;;;;15.75;10.25;;;;;;;18.65;67.84;101106.25;3537777;40;20426;-62
2023/07/22 07:39:14;;;;;;;16.50;10.10;;;;;;;18.71;68.43;101105.69;3534405;40;20054;-62
2023/07/22 07:41:40;;;;;;;16.48;10.80;;;;;;;18.67;68.67;101087.88;3535228;40;20077;-62
2023/07/22 07:44:06;;;;;;;16.63;10.88;;;;;;;18.85;68.27;101118.06;3534723;40;20414;-62
2023/07/22 07:46:31;;;;;;;14.38;9.82;;;;;;;18.85;66.95;101111.75;3535505;40;20050;-62
2023/07/22 07:49:03;;;;;;;15.48;10.45;;;;;;;18.35;67.92;101030.09;3533316;40;20336;-63
2023/07/22 07:51:31;;;;;;;14.75;9.52;;;;;;;18.95;67.52;101107.16;3533966;40;20128;-64
2023/07/22 07:53:58;;;;;;;14.70;9.85;;;;;;;19.05;67.89;101105.28;3537854;40;20077;-63
2023/07/22 07:56:25;;;;;;;15.20;10.07;;;;;;;19.18;68.29;101100.41;3534773;40;20070;-62
2023/07/22 07:58:53;;;;;;;15.25;10.00;;;;;;;19.52;67.86;101119.03;3534707;40;20180;-63
2023/07/22 08:01:19;;;;;;;16.17;9.38;;;;;;;19.62;65.20;101119.88;3533857;40;20106;-63
2023/07/22 08:03:45;;;;;;;12.25;9.00;;;;;;;19.67;64.36;101122.22;3533876;40;20408;-63
2023/07/22 08:06:12;;;;;;;13.10;9.25;;;;;;;19.70;64.52;101120.06;3533083;40;20160;-63
2023/07/22 08:08:39;;;;;;;11.65;8.57;;;;;;;19.78;63.93;101107.53;3534892;40;20051;-64
2023/07/22 08:11:15;;;;;;;12.70;8.57;;;;;;;19.06;63.99;100984.41;3533514;40;20086;-63
2023/07/22 08:13:43;;;;;;;11.63;7.78;;;;;;;19.93;63.94;101117.81;3536324;40;20061;-64
2023/07/22 08:16:13;;;;;;;13.23;9.13;;;;;;;20.02;62.72;101120.69;3534980;40;20054;-64
2023/07/22 08:18:38;;;;;;;13.70;8.48;;;;;;;20.09;63.40;101117.19;3535890;40;20064;-63
2023/07/22 08:21:07;;;;;;;12.95;8.27;;;;;;;20.13;62.74;101113.16;3532740;40;20092;-63
2023/07/22 08:23:32;;;;;;;12.73;8.55;;;;;;;20.14;62.90;101114.88;3540327;40;20054;-63
2023/07/22 08:25:58;;;;;;;16.42;8.93;;;;;;;20.20;63.10;101107.09;3532686;40;20181;-64
2023/07/22 08:28:24;;;;;;;11.85;8.68;;;;;;;20.20;62.18;101120.75;3532174;40;20062;-62
2023/07/22 08:30:50;;;;;;;10.63;7.80;;;;;;;20.23;61.67;101118.56;3535911;40;20386;-62
2023/07/22 08:33:18;;;;;;;13.68;8.30;;;;;;;19.89;62.11;101040.00;3535197;40;20062;-62
2023/07/22 08:35:45;;;;;;;12.52;8.68;;;;;;;20.51;61.39;101122.19;3533806;40;20063;-61
2023/07/22 08:38:10;;;;;;;13.05;8.05;;;;;;;20.59;61.89;101118.72;3533884;40;20070;-62
2023/07/22 08:40:38;;;;;;;11.02;7.60;;;;;;;20.05;61.30;100973.88;3538358;40;20077;-63
2023/07/22 08:43:10;;;;;;;12.27;8.07;;;;;;;20.97;59.51;101082.06;3535045;40;20061;-62
2023/07/22 08:45:38;;;;;;;10.65;6.60;;;;;;;20.95;58.79;101029.44;3533910;40;20054;-62
2023/07/22 08:48:12;;;;;;;11.75;7.50;;;;;;;21.75;57.76;101116.91;3536339;40;20124;-62
2023/07/22 08:50:58;;;;;;;10.82;6.60;;;;;;;21.80;56.51;101114.56;3535254;40;20125;-62
2023/07/22 08:53:26;;;;;;;10.27;6.55;;;;;;;21.77;56.84;101110.25;3534075;40;20058;-62
2023/07/22 08:55:53;;;;;;;11.85;6.35;;;;;;;21.98;56.40;101117.25;3539528;40;20133;-61
2023/07/22 08:58:20;;;;;;;11.32;7.15;;;;;;;22.11;55.17;101133.22;3531761;40;20097;-61
2023/07/22 09:00:48;;;;;;;9.13;6.22;;;;;;;21.77;55.13;101061.00;3534159;40;20055;-62
2023/07/22 09:03:16;;;;;;;10.52;6.25;;;;;;;22.15;54.23;101134.63;3531769;40;20106;-62
2023/07/22 09:05:45;;;;;;;9.00;5.53;;;;;;;22.05;53.40;101128.41;3532056;40;20070;-61
2023/07/22 09:08:11;;;;;;;8.80;5.85;;;;;;;21.40;53.20;101047.59;3534570;40;20057;-61
2023/07/22 09:10:38;;;;;;;6.70;4.95;;;;;;;21.85;54.19;101120.41;3536533;40;20065;-60
2023/07/22 09:13:05;;;;;;;9.32;5.50;;;;;;;21.82;53.37;101118.00;3535038;40;20077;-61
2023/07/22 09:15:37;;;;;;;8.80;5.68;;;;;;;21.84;54.83;101110.47;3534316;40;20378;-61
2023/07/22 09:18:04;;;;;;;11.82;5.82;;;;;;;21.88;54.45;101121.94;3530276;40;20390;-61
2023/07/22 09:20:30;;;;;;;8.80;5.32;;;;;;;21.86;53.56;101115.81;3534193;40;20086;-61
2023/07/22 09:22:56;;;;;;;7.43;5.20;;;;;;;21.98;53.38;101122.72;3532936;40;20058;-62
2023/07/22 09:25:26;;;;;;;11.52;5.15;;;;;;;22.18;53.97;101115.16;3534398;40;20062;-62
2023/07/22 09:27:59;;;;;;;10.32;4.95;;;;;;;22.29;53.52;101103.88;3532788;40;20255;-62
2023/07/22 09:30:30;;;;;;;10.50;5.15;;;;;;;22.31;53.63;101112.81;3539732;40;20050;-61
2023/07/22 09:33:02;;;;;;;8.48;4.47;;;;;;;21.87;52.66;101027.19;3531989;40;20074;-61
2023/07/22 09:35:45;;;;;;;7.07;4.90;;;;;;;22.48;52.47;101113.72;3534417;40;20062;-62
2023/07/22 09:38:11;;;;;;;7.53;4.93;;;;;;;22.57;52.65;101117.38;3535173;40;20305;-62
2023/07/22 09:40:41;;;;;;;5.93;4.55;;;;;;;22.46;52.99;101115.78;3535786;40;20066;-62
2023/07/22 09:43:12;;;;;;;7.05;4.68;;;;;;;22.36;53.19;101107.72;3535766;40;20050;-62
2023/07/22 09:45:37;;;;;;;10.10;4.88;;;;;;;22.38;53.67;101113.88;3532196;40;20062;-61
2023/07/22 09:48:03;;;;;;;9.45;4.93;;;;;;;21.83;52.30;101032.13;3535903;40;20133;-61
2023/07/22 09:50:29;;;;;;;5.65;4.00;;;;;;;22.24;52.81;101111.75;3535434;40;20082;-62
2023/07/22 09:53:01;;;;;;;5.03;3.67;;;;;;;22.20;53.08;101104.88;3536049;40;20081;-62
2023/07/22 09:55:30;;;;;;;6.45;3.60;;;;;;;21.89;52.60;101047.91;3535302;40;20114;-61
2023/07/22 09:58:01;;;;;;;9.40;5.13;;;;;;;22.22;53.04;101108.31;3535148;40;20495;-61
2023/07/22 10:00:36;;;;;;;7.68;4.47;;;;;;;22.18;52.98;101095.97;3535931;40;20066;-62
2023/07/22 10:03:10;;;;;;;7.47;3.95;;;;;;;22.16;52.04;101107.09;3533983;40;20103;-61
2023/07/22 10:05:38;;;;;;;7.93;3.90;;;;;;;22.16;52.04;101104.34;3535510;40;20358;-62
2023/07/22 10:08:06;;;;;;;7.97;3.90;;;;;;;22.12;52.34;101100.19;3536243;40;20294;-62
2023/07/22 10:10:38;;;;;;;8.23;3.70;;;;;;;22.12;52.37;101107.56;3534943;40;20057;-62
2023/07/22 10:13:05;;;;;;;6.65;3.42;;;;;;;22.13;53.75;101103.78;3534846;40;20074;-61
2023/07/22 10:15:34;;;;;;;7.35;4.00;;;;;;;22.15;52.74;101105.34;3534269;40;20057;-62
2023/07/22 10:18:03;;;;;;;8.57;3.72;;;;;;;22.13;52.41;101109.25;3536245;40;20058;-61
2023/07/22 10:20:30;;;;;;;6.13;3.60;;;;;;;22.16;53.54;101104.34;3530373;40;20090;-61
2023/07/22 10:22:56;;;;;;;6.38;3.45;;;;;;;22.28;53.28;101099.44;3532978;40;20093;-62
2023/07/22 10:25:23;;;;;;;6.20;3.70;;;;;;;21.95;52.58;101019.88;3532811;40;20492;-62
2023/07/22 10:27:52;;;;;;;5.68;3.13;;;;;;;22.53;51.33;101108.63;3532506;40;20101;-62
2023/07/22 10:30:18;;;;;;;6.90;2.72;;;;;;;22.57;50.88;101101.78;3538884;40;20070;-63
2023/07/22 10:32:49;;;;;;;4.78;2.80;;;;;;;22.52;51.29;101103.28;3534912;40;20054;-63
2023/07/22 10:35:29;;;;;;;7.60;3.20;;;;;;;22.63;51.65;101105.75;3535842;40;20372;-62
2023/07/22 10:38:06;;;;;;;5.20;2.80;;;;;;;22.57;50.72;101095.44;3536736;40;20050;-64
2023/07/22 10:40:31;;;;;;;4.38;2.45;;;;;;;22.74;50.59;101105.44;3534894;40;20062;-64
2023/07/22 10:43:06;;;;;;;6.28;2.55;;;;;;;22.86;49.99;101095.00;3533458;40;20058;-63
2023/07/22 10:45:40;;;;;;;4.80;2.20;;;;;;;22.64;48.76;101038.94;3532408;40;20636;-64
2023/07/22 10:48:12;;;;;;;3.38;2.75;;;;;;;23.21;47.78;101102.09;3531525;40;20433;-63
2023/07/22 10:50:53;;;;;;;3.92;2.30;;;;;;;23.36;45.94;101099.53;3538217;40;20406;-63
2023/07/22 10:53:24;;;;;;;6.05;1.80;;;;;;;23.38;45.67;101094.75;3537537;40;20059;-63
2023/07/22 10:56:11;;;;;;;3.67;1.95;;;;;;;23.28;46.08;101097.66;3534039;40;20218;-64
2023/07/22 10:58:46;;;;;;;3.88;2.00;;;;;;;23.35;46.50;101090.44;3533543;40;20065;-63
2023/07/22 11:01:32;;;;;;;2.58;2.10;;;;;;;23.56;45.45;101092.66;3536251;40;20057;-63
2023/07/22 11:04:34;;;;;;;3.08;1.90;;;;;;;23.80;44.97;101096.44;3535975;40;20059;-63
2023/07/22 11:07:05;;;;;;;4.07;1.88;;;;;;;23.96;44.78;101092.78;3538982;40;20584;-64
2023/07/22 11:09:31;;;;;;;2.65;2.00;;;;;;;23.97;45.15;101094.50;3537423;40;20089;-63
2023/07/22 11:12:02;;;;;;;5.20;1.73;;;;;;;23.98;42.33;101096.22;3535784;40;20062;-63